Main page
METAR-TAF:

METAR-TAF

Airports :

Luena Airport

Luena, Angola

latitude: 11-46-05S, longitude: 19-53-50E, elevation: 1329 m

Current weather observation

The report was made 4 hours and 3 minutes ago, at 14:00 UTC
Wind 6 kt from the South/Southeast
Temperature 22°C
Humidity 83%
Pressure 1019 hPa
Visibility 10 km or more
Scattered clouds at a height of 4000 ft

METAR: FNUE 251400Z 16006KT 9999 SCT040 22/19 Q1019

Time: 19:03 (18:03 UTC)

Forecast

The report was made 7 hours and 3 minutes ago, at 11:00 UTC
Forecast valid from 25 at 12 UTC to 25 at 24 UTC
Wind 2 kt from variable directions
Visibility: 9000 m
Few clouds at a height of 2000 ft
Broken clouds at a height of 4000 ft
Probability 30% :
Temporary
from 25 at 13 UTC to 25 at 17 UTC
Visibility: 7000 m
Scattered clouds at a height of 1500 ft
Few clouds at a height of 2800 ft, Cumulonimbus.
thunderstorm, rain

TAF: FNUE 251100Z 2512/2524 VRB02KT 9000 FEW020 BKN040 PROB30 TEMPO 2513/2517 7000 TSRA SCT015 FEW028CB

Weather observations and forecasts of more than 4000 airports (METAR and TAF reports).

The available stations are represented by yellow and red dots on the map.

Hover mouse over dot to see the name of the station.

Then click to see weather observations and forecasts.

To change the map : click on the green buttons with a black cross to zoom in, on the green button with a dash to zoom out, or on the green arrows for adjacent maps.


METAR-TAF: